Time;durP1;ratioP1;P1;durP2;ratioP2;P2;SDS_P1;SDS_P2;PMS_P1;PMS_P2;Temp;Humidity;BMP_temperature;BMP_pressure;BME280_temperature;BME280_humidity;BME280_pressure;Samples;Min_cycle;Max_cycle;Signal;HPM_P1;HPM_P2
2021/01/16 00:00:34;;;;;;;47.97;25.90;;;-0.20;77.10;;;;;;5074129;28;20032;-73
2021/01/16 00:03:00;;;;;;;50.95;26.60;;;-0.20;77.20;;;;;;5074097;28;20047;-73
2021/01/16 00:05:28;;;;;;;55.22;27.83;;;-0.20;77.30;;;;;;5073414;28;20075;-73
2021/01/16 00:08:05;;;;;;;64.47;30.38;;;-0.20;77.40;;;;;;5077383;28;20033;-74
2021/01/16 00:10:31;;;;;;;63.53;30.33;;;-0.20;77.50;;;;;;5080757;28;20037;-73
2021/01/16 00:12:57;;;;;;;73.38;33.83;;;-0.30;77.50;;;;;;5073797;28;20027;-72
2021/01/16 00:15:24;;;;;;;67.18;32.05;;;-0.30;77.60;;;;;;5074030;28;20432;-72
2021/01/16 00:18:03;;;;;;;72.18;31.08;;;-0.20;77.70;;;;;;5073716;28;20024;-73
2021/01/16 00:20:30;;;;;;;62.75;30.15;;;-0.30;77.80;;;;;;5074234;28;20059;-72
2021/01/16 00:22:56;;;;;;;77.20;33.25;;;-0.30;78.00;;;;;;5073317;28;20425;-72
2021/01/16 00:25:22;;;;;;;67.57;29.25;;;-0.30;78.20;;;;;;5073486;28;20063;-72
2021/01/16 00:27:48;;;;;;;49.75;26.42;;;-0.20;78.10;;;;;;5073805;28;20115;-73
2021/01/16 00:30:15;;;;;;;46.95;23.45;;;-0.30;78.00;;;;;;5073699;28;20052;-72
2021/01/16 00:32:41;;;;;;;47.10;23.25;;;-0.30;78.00;;;;;;5073861;28;20090;-72
2021/01/16 00:35:15;;;;;;;49.35;25.17;;;-0.30;78.20;;;;;;5074681;28;20029;-75
2021/01/16 00:37:43;;;;;;;43.22;23.23;;;-0.30;78.20;;;;;;5082385;28;20020;-73
2021/01/16 00:40:11;;;;;;;43.65;24.02;;;-0.40;78.20;;;;;;5074193;28;20024;-73
2021/01/16 00:42:42;;;;;;;56.35;25.58;;;-0.30;78.40;;;;;;5073015;28;20017;-73
2021/01/16 00:45:08;;;;;;;45.25;23.42;;;-0.30;78.60;;;;;;5074572;28;20484;-73
2021/01/16 00:47:38;;;;;;;48.97;24.92;;;-0.30;78.60;;;;;;5076277;28;20032;-74
2021/01/16 00:50:06;;;;;;;54.00;26.83;;;-0.30;78.70;;;;;;5091474;28;20016;-74
2021/01/16 00:52:32;;;;;;;51.03;27.13;;;-0.20;78.60;;;;;;5096476;28;20032;-83
2021/01/16 00:54:58;;;;;;;53.60;26.45;;;-0.30;78.50;;;;;;5095919;28;20046;-85
2021/01/16 00:57:24;;;;;;;47.72;25.70;;;-0.30;78.50;;;;;;5086811;28;20517;-87
2021/01/16 00:59:50;;;;;;;51.22;26.52;;;-0.30;78.60;;;;;;5075242;28;20376;-93
2021/01/16 01:02:15;;;;;;;49.22;24.95;;;-0.30;78.70;;;;;;5074589;28;20043;-94
2021/01/16 01:04:41;;;;;;;51.67;25.40;;;-0.30;78.70;;;;;;5074633;28;20048;-88
2021/01/16 01:07:10;;;;;;;47.40;24.35;;;-0.30;78.80;;;;;;5075187;28;20039;-93
2021/01/16 01:09:38;;;;;;;49.38;25.52;;;-0.30;78.70;;;;;;5075010;28;20059;-93
2021/01/16 01:12:04;;;;;;;46.88;25.50;;;-0.30;78.60;;;;;;5074569;28;20021;-93
2021/01/16 01:14:30;;;;;;;52.97;26.20;;;-0.30;78.60;;;;;;5074592;28;20112;-93
2021/01/16 01:16:56;;;;;;;43.65;23.77;;;-0.30;78.70;;;;;;5074649;28;20056;-93
2021/01/16 01:19:21;;;;;;;45.95;23.08;;;-0.30;79.70;;;;;;5074456;28;20104;-93
2021/01/16 01:21:47;;;;;;;43.08;23.75;;;-0.30;78.90;;;;;;5074759;28;20025;-92
2021/01/16 01:24:12;;;;;;;42.78;22.35;;;-0.30;79.00;;;;;;5075132;28;20033;-93
2021/01/16 01:26:38;;;;;;;44.60;23.00;;;-0.30;78.90;;;;;;5073994;28;20058;-84
2021/01/16 01:29:05;;;;;;;47.88;23.20;;;-0.30;78.90;;;;;;5074388;28;20025;-77
2021/01/16 01:31:31;;;;;;;48.55;24.27;;;-0.30;78.90;;;;;;5073260;28;20025;-80
2021/01/16 01:33:56;;;;;;;44.67;24.23;;;-0.30;78.80;;;;;;5073807;28;20062;-74
2021/01/16 01:36:22;;;;;;;42.38;22.98;;;-0.20;78.70;;;;;;5073337;28;20024;-76
2021/01/16 01:38:47;;;;;;;45.55;24.30;;;-0.20;78.70;;;;;;5075160;28;20035;-73
2021/01/16 01:41:13;;;;;;;42.35;23.88;;;-0.20;78.60;;;;;;5078305;28;20028;-77
2021/01/16 01:43:38;;;;;;;39.30;21.27;;;-0.20;78.50;;;;;;5080089;28;20056;-74
2021/01/16 01:46:04;;;;;;;41.20;22.90;;;-0.20;78.50;;;;;;5078076;28;20036;-77
2021/01/16 01:48:31;;;;;;;43.85;23.88;;;-0.20;78.40;;;;;;5079363;28;20457;-74
2021/01/16 01:50:59;;;;;;;39.63;22.30;;;-0.20;78.40;;;;;;5078337;28;20031;-74
2021/01/16 01:53:28;;;;;;;45.58;23.90;;;-0.20;78.40;;;;;;5079954;28;20021;-87
2021/01/16 01:55:57;;;;;;;42.83;22.65;;;-0.30;78.70;;;;;;5082912;28;20020;-74
2021/01/16 01:58:24;;;;;;;43.13;22.52;;;-0.30;78.80;;;;;;5081571;28;20105;-73
2021/01/16 02:00:53;;;;;;;41.97;23.48;;;-0.30;79.00;;;;;;5080152;28;20472;-75
2021/01/16 02:03:23;;;;;;;51.72;24.48;;;-0.30;79.20;;;;;;5087749;28;20025;-92
2021/01/16 02:05:55;;;;;;;40.88;21.67;;;-0.40;79.20;;;;;;5094768;28;20032;-91
2021/01/16 02:08:22;;;;;;;43.33;22.00;;;-0.40;79.30;;;;;;5093374;28;20028;-93
2021/01/16 02:10:47;;;;;;;46.58;24.70;;;-0.40;79.40;;;;;;5084974;28;20032;-92
2021/01/16 02:13:14;;;;;;;58.40;28.30;;;-0.40;79.40;;;;;;5079822;28;20103;-93
2021/01/16 02:15:44;;;;;;;56.00;29.48;;;-0.30;79.50;;;;;;5078292;28;20028;-90
2021/01/16 02:18:33;;;;;;;54.25;28.73;;;-0.30;79.40;;;;;;5078075;28;20064;-92
2021/01/16 02:21:02;;;;;;;54.83;27.95;;;-0.40;79.20;;;;;;5078413;28;20246;-88
2021/01/16 02:23:27;;;;;;;48.28;26.17;;;-0.30;79.30;;;;;;5084714;28;20055;-86
2021/01/16 02:26:01;;;;;;;52.13;25.77;;;-0.30;79.40;;;;;;5079491;28;20032;-93
2021/01/16 02:28:34;;;;;;;50.20;24.85;;;-0.40;79.20;;;;;;5077494;28;20025;-91
2021/01/16 02:31:01;;;;;;;45.13;24.15;;;-0.30;79.30;;;;;;5077909;28;20024;-86
2021/01/16 02:33:28;;;;;;;46.42;25.13;;;-0.40;79.10;;;;;;5078865;28;20427;-91
2021/01/16 02:36:00;;;;;;;43.95;23.50;;;-0.40;79.20;;;;;;5078805;28;20025;-94
2021/01/16 02:38:44;;;;;;;40.38;22.40;;;-0.30;79.30;;;;;;5079245;28;20062;-93
2021/01/16 02:41:51;;;;;;;40.72;21.50;;;-0.30;79.20;;;;;;5078260;28;20605;-93
2021/01/16 02:44:28;;;;;;;41.88;21.70;;;-0.30;79.20;;;;;;5077079;28;20083;-94
2021/01/16 02:46:59;;;;;;;41.30;21.73;;;-0.30;79.20;;;;;;5081375;28;20032;-93
2021/01/16 02:49:30;;;;;;;45.58;22.55;;;-0.30;79.30;;;;;;5077676;28;20104;-88
2021/01/16 02:52:03;;;;;;;42.47;23.70;;;-0.30;79.30;;;;;;5076297;28;20103;-85
2021/01/16 02:54:33;;;;;;;43.40;23.92;;;-0.30;79.20;;;;;;5077527;28;20028;-90
2021/01/16 02:57:00;;;;;;;39.33;21.70;;;-0.30;79.20;;;;;;5077067;28;20024;-86
2021/01/16 02:59:25;;;;;;;41.88;23.08;;;-0.30;79.20;;;;;;5076159;28;20021;-79
2021/01/16 03:01:55;;;;;;;38.55;20.63;;;-0.30;79.30;;;;;;5075684;28;20120;-78
2021/01/16 03:04:20;;;;;;;41.10;22.23;;;-0.30;79.40;;;;;;5075947;28;20099;-75
2021/01/16 03:06:50;;;;;;;39.55;22.33;;;-0.20;79.60;;;;;;5076058;28;20090;-81
2021/01/16 03:09:18;;;;;;;40.95;22.85;;;-0.20;79.50;;;;;;5076994;28;20020;-76
2021/01/16 03:11:45;;;;;;;38.88;22.40;;;-0.20;79.30;;;;;;5078198;28;20467;-82
2021/01/16 03:14:12;;;;;;;37.03;20.20;;;-0.30;79.30;;;;;;5075324;28;20031;-86
2021/01/16 03:16:49;;;;;;;36.78;20.45;;;-0.20;79.20;;;;;;5075746;28;20025;-83
2021/01/16 03:19:23;;;;;;;35.47;19.83;;;-0.30;79.20;;;;;;5075585;28;20427;-84
2021/01/16 03:21:49;;;;;;;31.45;17.38;;;-0.30;79.40;;;;;;5075955;28;20021;-79
2021/01/16 03:24:14;;;;;;;42.45;21.52;;;-0.30;79.60;;;;;;5076078;28;20107;-93
2021/01/16 03:26:40;;;;;;;40.15;20.70;;;-0.30;79.70;;;;;;5075678;28;20029;-89
2021/01/16 03:29:05;;;;;;;35.95;20.35;;;-0.20;79.60;;;;;;5075305;28;20384;-87
2021/01/16 03:31:31;;;;;;;42.92;22.00;;;-0.20;79.40;;;;;;5075723;28;20024;-91
2021/01/16 03:33:57;;;;;;;38.33;20.52;;;-0.20;79.40;;;;;;5076647;28;20081;-87
2021/01/16 03:36:22;;;;;;;40.22;21.83;;;-0.20;79.40;;;;;;5076889;28;20027;-90
2021/01/16 03:38:48;;;;;;;37.22;20.80;;;-0.20;79.20;;;;;;5079538;28;20035;-87
2021/01/16 03:41:13;;;;;;;36.30;19.77;;;-0.30;79.20;;;;;;5084399;28;20044;-90
2021/01/16 03:43:39;;;;;;;42.97;23.10;;;-0.30;79.40;;;;;;5082049;28;20055;-94
2021/01/16 03:46:05;;;;;;;42.40;23.67;;;-0.30;79.60;;;;;;5078746;28;20061;-93
2021/01/16 03:48:31;;;;;;;42.20;21.98;;;-0.30;79.70;;;;;;5081617;28;20046;-93
2021/01/16 03:50:56;;;;;;;46.17;23.85;;;-0.30;79.80;;;;;;5075939;28;20494;-84
2021/01/16 03:53:22;;;;;;;49.42;24.40;;;-0.30;79.70;;;;;;5077599;28;20056;-93
2021/01/16 03:55:47;;;;;;;44.90;24.45;;;-0.30;79.70;;;;;;5076031;28;20028;-88
2021/01/16 03:58:13;;;;;;;43.03;23.67;;;-0.30;79.70;;;;;;5078889;28;20492;-79
2021/01/16 04:00:39;;;;;;;48.33;24.02;;;-0.30;79.90;;;;;;5074464;28;20484;-85
2021/01/16 04:03:04;;;;;;;44.78;23.88;;;-0.30;79.80;;;;;;5074874;28;20532;-91
2021/01/16 04:05:30;;;;;;;44.15;24.52;;;-0.30;79.90;;;;;;5075443;28;20393;-91
2021/01/16 04:07:55;;;;;;;47.00;24.80;;;-0.30;79.90;;;;;;5076466;28;20060;-85
2021/01/16 04:10:21;;;;;;;44.05;24.25;;;-0.20;79.90;;;;;;5076274;28;20024;-86
2021/01/16 04:12:47;;;;;;;42.67;22.83;;;-0.20;79.80;;;;;;5076726;28;20028;-88
2021/01/16 04:15:13;;;;;;;43.78;22.80;;;-0.20;79.70;;;;;;5076722;28;20020;-90
2021/01/16 04:17:38;;;;;;;46.78;23.08;;;-0.20;79.70;;;;;;5076873;28;20025;-90
2021/01/16 04:20:05;;;;;;;45.30;23.70;;;-0.20;79.80;;;;;;5077211;28;20023;-91
2021/01/16 04:22:35;;;;;;;41.00;21.90;;;-0.30;79.90;;;;;;5094001;28;20028;-75
2021/01/16 04:25:00;;;;;;;42.90;23.13;;;-0.30;80.00;;;;;;5084849;28;20040;-73
2021/01/16 04:27:26;;;;;;;43.45;22.40;;;-0.30;80.10;;;;;;5073601;28;20566;-73
2021/01/16 04:29:51;;;;;;;48.25;24.45;;;-0.30;80.30;;;;;;5073495;28;20086;-73
2021/01/16 04:32:17;;;;;;;43.70;22.95;;;-0.40;80.20;;;;;;5073530;28;20051;-73
2021/01/16 04:34:43;;;;;;;42.50;22.92;;;-0.40;80.30;;;;;;5073671;28;20024;-73
2021/01/16 04:37:08;;;;;;;42.10;22.23;;;-0.40;80.50;;;;;;5073771;28;20060;-78
2021/01/16 04:39:34;;;;;;;43.63;22.60;;;-0.40;80.50;;;;;;5071949;28;20029;-73
2021/01/16 04:42:01;;;;;;;42.65;22.63;;;-0.40;80.50;;;;;;5073022;28;20032;-77
2021/01/16 04:44:35;;;;;;;41.17;21.20;;;-0.40;81.20;;;;;;5073063;28;20044;-73
2021/01/16 04:47:03;;;;;;;44.63;23.10;;;-0.40;80.40;;;;;;5072955;28;20109;-74
2021/01/16 04:49:29;;;;;;;41.45;23.13;;;-0.40;80.50;;;;;;5073001;28;20023;-73
2021/01/16 04:51:56;;;;;;;42.33;23.40;;;-0.40;80.60;;;;;;5073036;28;20385;-74
2021/01/16 04:54:23;;;;;;;39.97;22.05;;;-0.40;80.70;;;;;;5073182;28;20024;-73
2021/01/16 04:56:49;;;;;;;43.90;23.08;;;-0.40;80.70;;;;;;5073033;28;20078;-74
2021/01/16 04:59:15;;;;;;;44.38;23.67;;;-0.50;80.60;;;;;;5072989;28;20034;-73
2021/01/16 05:01:40;;;;;;;40.92;23.45;;;-0.50;80.50;;;;;;5072929;28;20056;-73
2021/01/16 05:04:08;;;;;;;42.15;23.25;;;-0.50;80.50;;;;;;5072838;28;20441;-74
2021/01/16 05:06:39;;;;;;;37.78;22.25;;;-0.50;80.40;;;;;;5072737;28;20029;-74
2021/01/16 05:09:05;;;;;;;42.17;24.00;;;-0.50;80.60;;;;;;5073050;28;20048;-73
2021/01/16 05:11:30;;;;;;;48.45;23.70;;;-0.50;80.60;;;;;;5073095;28;20043;-73
2021/01/16 05:14:15;;;;;;;46.13;23.75;;;-0.50;80.80;;;;;;5074313;28;20024;-73
2021/01/16 05:16:59;;;;;;;52.63;25.75;;;-0.50;80.80;;;;;;5077054;28;20032;-73
2021/01/16 05:19:27;;;;;;;49.08;25.58;;;-0.50;80.80;;;;;;5077045;28;20020;-73
2021/01/16 05:21:55;;;;;;;51.40;25.52;;;-0.60;80.80;;;;;;5078738;28;20020;-92
2021/01/16 05:24:21;;;;;;;52.10;25.40;;;-0.60;80.80;;;;;;5079854;28;20020;-92
2021/01/16 05:27:06;;;;;;;45.55;24.40;;;-0.60;80.80;;;;;;5080563;28;20091;-90
2021/01/16 05:29:33;;;;;;;44.43;23.60;;;-0.60;80.70;;;;;;5081269;28;20028;-91
2021/01/16 05:32:01;;;;;;;54.90;26.10;;;-0.60;80.70;;;;;;5086091;28;20331;-89
2021/01/16 05:34:29;;;;;;;54.15;27.88;;;-0.60;80.70;;;;;;5085185;28;20035;-89
2021/01/16 05:36:55;;;;;;;53.05;27.30;;;-0.50;80.80;;;;;;5085032;28;20565;-90
2021/01/16 05:39:25;;;;;;;49.58;25.65;;;-0.50;80.70;;;;;;5088138;28;20029;-91
2021/01/16 05:41:59;;;;;;;46.65;24.80;;;-0.50;80.50;;;;;;5084184;28;20028;-91
2021/01/16 05:44:26;;;;;;;47.83;24.77;;;-0.50;80.30;;;;;;5087396;28;20041;-91
2021/01/16 05:46:52;;;;;;;45.33;24.50;;;-0.50;80.20;;;;;;5079209;28;20032;-90
2021/01/16 05:49:21;;;;;;;43.97;23.17;;;-0.50;80.10;;;;;;5080122;28;20465;-90
2021/01/16 05:51:47;;;;;;;42.15;22.77;;;-0.50;80.00;;;;;;5077986;28;20036;-85
2021/01/16 05:54:14;;;;;;;42.75;22.70;;;-0.50;80.00;;;;;;5077127;28;20028;-74
2021/01/16 05:56:41;;;;;;;46.88;24.77;;;-0.50;80.00;;;;;;5078118;28;20021;-88
2021/01/16 05:59:10;;;;;;;48.78;25.25;;;-0.50;79.90;;;;;;5078667;28;20032;-85
2021/01/16 06:01:37;;;;;;;44.40;23.08;;;-0.60;80.10;;;;;;5079282;28;20201;-88
2021/01/16 06:04:04;;;;;;;47.42;24.90;;;-0.60;80.30;;;;;;5079047;28;20020;-73
2021/01/16 06:06:35;;;;;;;53.17;25.23;;;-0.60;80.50;;;;;;5077717;28;20039;-73
2021/01/16 06:09:03;;;;;;;48.83;25.40;;;-0.80;80.90;;;;;;5078422;28;20021;-73
2021/01/16 06:11:38;;;;;;;46.05;24.52;;;-0.80;81.40;;;;;;5076894;28;20078;-73
2021/01/16 06:14:08;;;;;;;47.45;24.63;;;-0.80;81.30;;;;;;5075128;28;20028;-73
2021/01/16 06:16:45;;;;;;;46.97;23.65;;;-0.80;81.00;;;;;;5076846;28;20111;-73
2021/01/16 06:19:16;;;;;;;46.03;23.60;;;-0.70;80.90;;;;;;5076473;28;20036;-75
2021/01/16 06:21:43;;;;;;;52.28;25.48;;;-0.70;80.50;;;;;;5076382;28;20028;-72
2021/01/16 06:24:14;;;;;;;47.08;23.25;;;-0.80;80.10;;;;;;5075852;28;20032;-73
2021/01/16 06:26:42;;;;;;;48.25;23.77;;;-0.80;80.30;;;;;;5076306;28;20477;-73
2021/01/16 06:29:23;;;;;;;48.88;23.70;;;-0.80;80.30;;;;;;5078944;28;20056;-91
2021/01/16 06:31:50;;;;;;;48.50;24.85;;;-0.70;80.40;;;;;;5081370;28;20021;-77
2021/01/16 06:34:29;;;;;;;49.15;25.17;;;-0.60;80.90;;;;;;5078496;28;20096;-73
2021/01/16 06:37:15;;;;;;;49.97;23.98;;;-0.60;79.90;;;;;;5074298;28;20500;-73
2021/01/16 06:39:47;;;;;;;54.85;25.17;;;-0.60;79.70;;;;;;5075556;28;20032;-73
2021/01/16 06:42:23;;;;;;;52.28;25.30;;;-0.60;80.20;;;;;;5075519;28;20113;-74
2021/01/16 06:45:02;;;;;;;47.70;23.70;;;-0.60;79.20;;;;;;5075109;28;20492;-73
2021/01/16 06:47:27;;;;;;;53.20;24.65;;;-0.70;79.20;;;;;;5075412;28;20089;-76
2021/01/16 06:49:59;;;;;;;44.55;23.52;;;-0.70;79.30;;;;;;5075492;28;20060;-74
2021/01/16 06:52:33;;;;;;;48.85;24.83;;;-0.70;79.60;;;;;;5075609;28;20036;-77
2021/01/16 06:55:03;;;;;;;43.35;23.23;;;-0.70;79.80;;;;;;5074830;28;20021;-75
2021/01/16 06:57:29;;;;;;;53.13;26.80;;;-0.70;79.90;;;;;;5074479;28;20527;-76
2021/01/16 06:59:58;;;;;;;56.10;26.33;;;-0.70;80.00;;;;;;5075459;28;20025;-79
2021/01/16 07:02:25;;;;;;;53.08;26.73;;;-0.70;80.10;;;;;;5075626;28;20025;-73
2021/01/16 07:04:55;;;;;;;52.63;25.58;;;-0.80;80.00;;;;;;5074761;28;20056;-75
2021/01/16 07:07:40;;;;;;;50.50;26.35;;;-0.80;80.10;;;;;;5074945;28;20474;-74
2021/01/16 07:10:11;;;;;;;51.20;24.58;;;-0.80;80.30;;;;;;5074938;28;20408;-78
2021/01/16 07:12:41;;;;;;;49.42;24.17;;;-0.80;80.50;;;;;;5073475;28;20032;-75
2021/01/16 07:15:08;;;;;;;55.22;26.58;;;-0.80;80.60;;;;;;5073627;28;20031;-75
2021/01/16 07:17:34;;;;;;;51.53;26.13;;;-0.80;80.60;;;;;;5074705;28;20031;-74
2021/01/16 07:20:00;;;;;;;44.92;23.65;;;-0.80;80.60;;;;;;5075799;28;20032;-75
2021/01/16 07:22:30;;;;;;;48.60;24.63;;;-0.80;80.60;;;;;;5075247;28;20082;-74
2021/01/16 07:24:57;;;;;;;52.40;24.90;;;-0.80;80.60;;;;;;5074481;28;20111;-73
2021/01/16 07:27:25;;;;;;;47.75;23.27;;;-0.70;80.70;;;;;;5083283;28;20103;-73
2021/01/16 07:29:51;;;;;;;48.05;24.13;;;-0.70;80.50;;;;;;5074245;28;20128;-73
2021/01/16 07:32:17;;;;;;;45.17;24.33;;;-0.60;80.20;;;;;;5074453;28;20457;-74
2021/01/16 07:34:47;;;;;;;39.75;21.88;;;-0.60;79.90;;;;;;5074425;28;20070;-74
2021/01/16 07:37:14;;;;;;;47.92;24.40;;;-0.60;79.80;;;;;;5074889;28;20076;-72
2021/01/16 07:39:43;;;;;;;39.53;15.27;;;-0.70;79.80;;;;;;5075701;28;20099;-76
2021/01/16 07:42:14;;;;;;;48.90;22.92;;;-0.40;84.10;;;;;;5074190;28;20412;-75
2021/01/16 07:44:45;;;;;;;48.28;26.52;;;0.30;96.10;;;;;;5073905;28;20049;-74
2021/01/16 07:47:20;;;;;;;44.65;21.77;;;0.50;94.80;;;;;;5073533;28;20033;-74
2021/01/16 07:49:55;;;;;;;39.83;21.63;;;0.50;87.40;;;;;;5073741;28;20095;-73
2021/01/16 07:52:23;;;;;;;41.42;20.90;;;0.60;83.00;;;;;;5073660;28;20020;-73
2021/01/16 07:55:04;;;;;;;34.83;19.13;;;1.00;79.80;;;;;;5073644;28;20075;-75
2021/01/16 07:57:31;;;;;;;30.58;17.58;;;1.20;76.70;;;;;;5073783;28;20034;-73
2021/01/16 08:00:03;;;;;;;31.48;18.48;;;1.80;74.40;;;;;;5073518;28;20017;-74
2021/01/16 08:02:32;;;;;;;37.00;20.52;;;1.80;72.00;;;;;;5073556;28;20020;-74
2021/01/16 08:05:19;;;;;;;28.42;16.80;;;1.70;70.50;;;;;;5073352;28;20021;-74
2021/01/16 08:07:54;;;;;;;31.33;18.13;;;1.90;70.20;;;;;;5073167;28;20476;-75
2021/01/16 08:10:22;;;;;;;20.03;12.30;;;2.00;69.40;;;;;;5072869;28;20154;-75
2021/01/16 08:12:56;;;;;;;27.15;13.88;;;1.90;68.70;;;;;;5073949;28;20275;-74
2021/01/16 08:15:29;;;;;;;24.45;13.52;;;1.70;66.90;;;;;;5075479;28;20111;-76
2021/01/16 08:17:55;;;;;;;25.45;13.95;;;1.40;66.50;;;;;;5079555;28;20020;-79
2021/01/16 08:20:28;;;;;;;40.47;21.55;;;1.10;67.20;;;;;;5078319;28;20025;-73
2021/01/16 08:22:56;;;;;;;45.03;22.67;;;0.40;69.10;;;;;;5074546;28;20027;-76
2021/01/16 08:25:28;;;;;;;44.15;22.25;;;0.20;71.30;;;;;;5072568;28;20047;-79
2021/01/16 08:27:56;;;;;;;41.03;21.35;;;0.00;72.20;;;;;;5073530;28;20012;-74
2021/01/16 08:30:22;;;;;;;45.28;23.42;;;0.00;72.50;;;;;;5073298;28;20058;-79
2021/01/16 08:33:03;;;;;;;50.90;24.70;;;0.00;73.00;;;;;;5072121;28;20089;-83
2021/01/16 08:35:37;;;;;;;48.47;25.83;;;-0.10;73.60;;;;;;5073575;28;20024;-83
2021/01/16 08:38:15;;;;;;;50.42;24.85;;;-0.10;74.20;;;;;;5073615;28;20020;-85
2021/01/16 08:40:54;;;;;;;49.80;23.52;;;-0.10;74.40;;;;;;5073849;28;20024;-84
2021/01/16 08:43:57;;;;;;;43.90;21.77;;;0.00;74.40;;;;;;5073754;28;20119;-82
2021/01/16 08:46:36;;;;;;;35.22;19.40;;;0.10;74.40;;;;;;5042160;28;20048;-82
2021/01/16 08:49:10;;;;;;;46.05;23.15;;;0.20;74.30;;;;;;5076510;28;20082;-83
2021/01/16 08:51:41;;;;;;;45.95;22.35;;;0.30;74.30;;;;;;5072388;28;20020;-73
2021/01/16 08:54:19;;;;;;;44.53;22.75;;;0.40;74.00;;;;;;5072645;28;20089;-86
2021/01/16 08:56:49;;;;;;;69.40;28.20;;;0.50;73.60;;;;;;5073629;28;20047;-81
2021/01/16 08:59:19;;;;;;;56.75;25.10;;;0.60;73.10;;;;;;5076786;28;20016;-84
2021/01/16 09:01:50;;;;;;;44.03;23.52;;;0.60;72.50;;;;;;5075041;28;20023;-85
2021/01/16 09:04:30;;;;;;;44.42;22.45;;;0.70;72.10;;;;;;5075411;28;20028;-85
2021/01/16 09:07:22;;;;;;;43.05;22.13;;;0.70;71.90;;;;;;5076094;28;20039;-85
2021/01/16 09:09:58;;;;;;;45.08;23.02;;;0.80;71.90;;;;;;5075303;28;20112;-82
2021/01/16 09:12:40;;;;;;;44.47;24.02;;;0.90;71.80;;;;;;5067151;28;20385;-81
2021/01/16 09:15:22;;;;;;;43.03;22.40;;;1.00;71.60;;;;;;5064251;28;20048;-84
2021/01/16 09:18:03;;;;;;;36.25;19.92;;;1.10;71.30;;;;;;5067705;28;20021;-84
2021/01/16 09:20:29;;;;;;;44.42;22.55;;;1.10;70.90;;;;;;5062950;28;20052;-77
2021/01/16 09:22:55;;;;;;;43.55;23.13;;;1.10;70.80;;;;;;5053176;28;20032;-73
2021/01/16 09:25:22;;;;;;;44.00;23.15;;;1.10;70.70;;;;;;5051209;28;20029;-79
2021/01/16 09:27:49;;;;;;;44.92;22.70;;;1.10;70.60;;;;;;5052923;28;20048;-75
2021/01/16 09:30:27;;;;;;;41.60;21.70;;;1.10;70.70;;;;;;5053312;28;20055;-74
2021/01/16 09:32:54;;;;;;;43.05;22.67;;;1.10;70.50;;;;;;5052327;28;20104;-73
2021/01/16 09:35:39;;;;;;;46.47;24.13;;;1.10;70.40;;;;;;5052520;28;20469;-78
2021/01/16 09:38:16;;;;;;;35.78;20.80;;;1.40;70.20;;;;;;5052807;28;20029;-74
2021/01/16 09:40:42;;;;;;;35.67;19.50;;;1.90;69.60;;;;;;5052942;28;20057;-80
2021/01/16 09:43:18;;;;;;;33.85;18.60;;;2.30;68.40;;;;;;5052034;28;20048;-73
2021/01/16 09:45:55;;;;;;;34.53;18.20;;;2.70;66.40;;;;;;5052394;28;20561;-73
2021/01/16 09:48:42;;;;;;;25.92;15.02;;;3.00;64.60;;;;;;5052208;28;20021;-75
2021/01/16 09:51:10;;;;;;;24.77;15.07;;;3.40;62.80;;;;;;5051492;28;20025;-78
2021/01/16 09:53:36;;;;;;;23.63;15.07;;;3.70;61.20;;;;;;5052707;28;20017;-84
2021/01/16 09:56:02;;;;;;;24.75;15.13;;;4.00;59.70;;;;;;5053183;28;20429;-84
2021/01/16 09:58:30;;;;;;;23.70;15.77;;;4.40;58.60;;;;;;5052671;28;20021;-75
2021/01/16 10:01:12;;;;;;;27.90;16.85;;;4.70;57.60;;;;;;5058302;28;20193;-80
2021/01/16 10:03:39;;;;;;;27.60;15.88;;;4.90;56.30;;;;;;5075345;28;20028;-82
2021/01/16 10:06:06;;;;;;;23.92;14.93;;;5.10;55.60;;;;;;5076188;28;20376;-74
2021/01/16 10:08:33;;;;;;;24.58;14.15;;;5.30;54.80;;;;;;5075115;28;20086;-78
2021/01/16 10:11:02;;;;;;;20.15;12.98;;;5.40;54.10;;;;;;5075323;28;20329;-74
2021/01/16 10:13:39;;;;;;;21.63;13.52;;;5.60;53.40;;;;;;5074905;28;20043;-80
2021/01/16 10:16:11;;;;;;;24.42;14.00;;;5.70;52.90;;;;;;5076427;28;20020;-85
2021/01/16 10:18:39;;;;;;;18.55;12.32;;;5.90;52.40;;;;;;5076311;28;20043;-83
2021/01/16 10:21:10;;;;;;;24.23;14.93;;;6.10;51.30;;;;;;5076647;28;20033;-74
2021/01/16 10:23:38;;;;;;;21.17;12.93;;;6.30;50.70;;;;;;5074864;28;20128;-74
2021/01/16 10:26:06;;;;;;;26.50;15.05;;;6.40;50.10;;;;;;5076260;28;20091;-80
2021/01/16 10:28:36;;;;;;;24.52;15.25;;;6.60;49.20;;;;;;5076101;28;20021;-81
2021/01/16 10:31:07;;;;;;;23.55;13.73;;;6.40;49.60;;;;;;5074928;28;20043;-84
2021/01/16 10:33:39;;;;;;;30.10;15.88;;;6.20;48.80;;;;;;5070457;28;20028;-80
2021/01/16 10:36:14;;;;;;;38.97;22.02;;;5.80;49.40;;;;;;5071346;28;20028;-74
2021/01/16 10:38:47;;;;;;;37.35;22.10;;;5.20;50.50;;;;;;5074550;28;20477;-73
2021/01/16 10:41:35;;;;;;;34.78;20.95;;;5.00;51.60;;;;;;5075417;28;20028;-73
2021/01/16 10:44:03;;;;;;;48.53;24.65;;;4.50;52.40;;;;;;5075180;28;20075;-76
2021/01/16 10:46:46;;;;;;;43.35;23.45;;;4.50;53.40;;;;;;5075174;28;20040;-79
2021/01/16 10:49:19;;;;;;;53.42;28.38;;;4.50;54.20;;;;;;5073550;28;20123;-74
2021/01/16 10:51:55;;;;;;;50.70;26.85;;;4.70;54.10;;;;;;5074326;28;20473;-81
2021/01/16 10:54:22;;;;;;;56.45;27.73;;;4.70;53.60;;;;;;5074389;28;20546;-83
2021/01/16 10:57:01;;;;;;;52.33;26.00;;;4.90;53.30;;;;;;5074197;28;20032;-77
2021/01/16 10:59:29;;;;;;;42.25;22.73;;;5.20;52.70;;;;;;5073620;28;20025;-72
2021/01/16 11:01:55;;;;;;;47.95;25.17;;;5.40;52.10;;;;;;5073042;28;20400;-74
2021/01/16 11:04:22;;;;;;;44.35;24.00;;;5.90;51.30;;;;;;5073699;28;20035;-73
2021/01/16 11:06:50;;;;;;;42.80;23.60;;;5.90;50.70;;;;;;5073845;28;20551;-73
2021/01/16 11:09:34;;;;;;;50.00;25.15;;;5.90;50.60;;;;;;5073577;28;20491;-73
2021/01/16 11:12:07;;;;;;;44.50;24.10;;;6.20;49.70;;;;;;5073698;28;20032;-73
2021/01/16 11:14:33;;;;;;;41.53;23.30;;;5.70;49.60;;;;;;5073775;28;20027;-81
2021/01/16 11:17:01;;;;;;;38.38;21.40;;;5.60;50.20;;;;;;5074429;28;20016;-80
2021/01/16 11:19:31;;;;;;;46.05;24.92;;;6.30;49.90;;;;;;5074303;28;20032;-74
2021/01/16 11:22:04;;;;;;;47.28;25.20;;;6.40;48.90;;;;;;5073498;28;20064;-73
2021/01/16 11:24:32;;;;;;;40.70;22.65;;;6.60;48.00;;;;;;5073086;28;20020;-76
2021/01/16 11:27:02;;;;;;;54.10;27.35;;;7.20;47.10;;;;;;5075890;28;20032;-76
2021/01/16 11:29:40;;;;;;;43.80;24.98;;;7.70;46.40;;;;;;5072839;28;20388;-73
2021/01/16 11:32:22;;;;;;;53.78;26.90;;;8.40;44.80;;;;;;5072662;28;20021;-74
2021/01/16 11:35:11;;;;;;;52.00;27.08;;;8.10;44.10;;;;;;5073994;28;20024;-76
2021/01/16 11:37:47;;;;;;;47.92;27.40;;;7.40;43.90;;;;;;5072547;28;20122;-75
2021/01/16 11:40:31;;;;;;;46.88;26.02;;;7.10;44.40;;;;;;5073125;28;20024;-74
2021/01/16 11:43:14;;;;;;;46.30;25.75;;;6.90;45.00;;;;;;5073819;28;20028;-74
2021/01/16 11:45:40;;;;;;;47.42;25.38;;;7.40;45.10;;;;;;5072581;28;20262;-74
2021/01/16 11:48:06;;;;;;;47.60;23.75;;;8.30;44.10;;;;;;5072826;28;20476;-75
2021/01/16 11:50:34;;;;;;;41.50;23.48;;;9.10;42.60;;;;;;5073744;28;20028;-75
2021/01/16 11:53:07;;;;;;;40.35;23.98;;;9.70;40.90;;;;;;5072403;28;20017;-75
2021/01/16 11:55:33;;;;;;;40.88;22.63;;;10.40;39.30;;;;;;5072275;28;20020;-74
2021/01/16 11:58:01;;;;;;;46.45;24.88;;;10.90;38.00;;;;;;5071823;28;20021;-77
2021/01/16 12:00:27;;;;;;;38.25;22.83;;;11.40;37.00;;;;;;5064922;28;20095;-75
2021/01/16 12:02:54;;;;;;;38.72;22.92;;;11.50;35.80;;;;;;5069988;28;20038;-74
2021/01/16 12:05:22;;;;;;;34.38;21.15;;;12.10;35.10;;;;;;5072730;28;20031;-75
2021/01/16 12:07:56;;;;;;;34.33;22.02;;;12.30;34.10;;;;;;5072361;28;20071;-75
2021/01/16 12:10:27;;;;;;;38.08;22.30;;;12.80;33.30;;;;;;5072393;28;20025;-75
2021/01/16 12:12:57;;;;;;;34.78;21.50;;;13.10;32.80;;;;;;5063129;28;20025;-75
2021/01/16 12:15:28;;;;;;;34.35;21.55;;;13.70;32.10;;;;;;5035320;28;20033;-74
2021/01/16 12:17:55;;;;;;;37.42;22.63;;;14.40;31.00;;;;;;5052260;28;20079;-75
2021/01/16 12:20:26;;;;;;;34.25;21.38;;;15.30;29.90;;;;;;5053612;28;20083;-75
2021/01/16 12:22:57;;;;;;;37.75;23.80;;;15.80;28.40;;;;;;5034898;28;20485;-77
2021/01/16 12:25:34;;;;;;;34.42;22.10;;;16.20;27.20;;;;;;5053394;28;20112;-76
2021/01/16 12:28:03;;;;;;;35.67;22.55;;;15.90;27.10;;;;;;5053780;28;20032;-77
2021/01/16 12:30:38;;;;;;;31.80;21.75;;;16.20;25.90;;;;;;5052330;28;20477;-73
2021/01/16 12:33:04;;;;;;;34.80;22.23;;;17.00;25.30;;;;;;5052894;28;20025;-78
2021/01/16 12:35:30;;;;;;;38.60;24.02;;;17.30;24.40;;;;;;5055359;28;20063;-76
2021/01/16 12:37:56;;;;;;;37.80;24.70;;;17.30;23.40;;;;;;5055246;28;20044;-74
2021/01/16 12:40:24;;;;;;;36.90;24.73;;;17.10;22.90;;;;;;5052850;28;20021;-76
2021/01/16 12:42:51;;;;;;;40.88;26.33;;;16.50;23.00;;;;;;5060449;28;20016;-75
2021/01/16 12:45:21;;;;;;;37.05;23.88;;;16.10;23.20;;;;;;5058741;28;20037;-74